createdAt,value
2023-05-19T00:00:19.545Z,3.40
2023-05-19T00:03:09.525Z,3.67
2023-05-19T00:05:59.800Z,4.07
2023-05-19T00:08:50.619Z,3.03
2023-05-19T00:11:41.660Z,3.70
2023-05-19T00:14:31.169Z,4.43
2023-05-19T00:17:20.803Z,4.20
2023-05-19T00:20:12.609Z,4.30
2023-05-19T00:23:01.306Z,4.40
2023-05-19T00:25:50.267Z,4.30
2023-05-19T00:28:40.442Z,3.60
2023-05-19T00:31:29.671Z,3.80
2023-05-19T00:34:18.467Z,3.43
2023-05-19T00:37:07.230Z,3.37
2023-05-19T00:39:56.262Z,3.70
2023-05-19T00:42:45.026Z,4.73
2023-05-19T00:45:35.284Z,3.37
2023-05-19T00:48:24.377Z,3.57
2023-05-19T00:51:16.654Z,3.60
2023-05-19T00:54:06.015Z,3.40
2023-05-19T00:56:55.673Z,3.53
2023-05-19T00:59:44.566Z,3.73
2023-05-19T01:02:34.865Z,4.10
2023-05-19T01:05:24.317Z,4.43
2023-05-19T01:08:13.312Z,4.27
2023-05-19T01:11:05.013Z,3.67
2023-05-19T01:13:53.965Z,4.40
2023-05-19T01:16:50.290Z,3.80
2023-05-19T01:20:06.591Z,4.00
2023-05-19T01:23:36.691Z,4.70
2023-05-19T01:26:58.024Z,4.17
2023-05-19T01:30:17.754Z,4.60
2023-05-19T01:33:11.059Z,3.97
2023-05-19T01:36:06.106Z,3.60
2023-05-19T01:39:00.275Z,4.00
2023-05-19T01:41:50.199Z,4.17
2023-05-19T01:44:39.838Z,4.10
2023-05-19T01:47:30.039Z,4.07
2023-05-19T01:50:18.974Z,3.67
2023-05-19T01:53:07.946Z,4.70
2023-05-19T01:55:58.252Z,3.80
2023-05-19T01:58:52.975Z,3.40
2023-05-19T02:01:52.562Z,3.77
2023-05-19T02:04:52.222Z,3.30
2023-05-19T02:07:49.663Z,4.53
2023-05-19T02:10:43.537Z,3.60
2023-05-19T02:13:38.662Z,3.73
2023-05-19T02:16:30.418Z,3.23
2023-05-19T02:19:25.755Z,3.13
2023-05-19T02:22:18.048Z,3.20
2023-05-19T02:25:08.107Z,4.20
2023-05-19T02:27:56.915Z,3.37
2023-05-19T02:30:45.763Z,3.30
2023-05-19T02:33:34.560Z,3.50
2023-05-19T02:36:26.561Z,4.30
2023-05-19T02:39:16.955Z,3.00
2023-05-19T02:42:06.531Z,2.97
2023-05-19T02:44:56.266Z,3.27
2023-05-19T02:47:45.137Z,3.37
2023-05-19T02:50:34.088Z,4.20
2023-05-19T02:53:22.955Z,3.37
2023-05-19T02:56:13.074Z,3.30
2023-05-19T02:59:01.928Z,3.73
2023-05-19T03:01:51.313Z,3.40
2023-05-19T03:04:41.804Z,2.93
2023-05-19T03:07:30.808Z,2.77
2023-05-19T03:10:19.801Z,3.40
2023-05-19T03:13:09.927Z,3.23
2023-05-19T03:15:59.666Z,2.70
2023-05-19T03:18:48.653Z,3.13
2023-05-19T03:21:37.522Z,2.77
2023-05-19T03:24:26.298Z,3.33
2023-05-19T03:27:16.510Z,3.70
2023-05-19T03:30:08.300Z,3.23
2023-05-19T03:33:05.828Z,3.53
2023-05-19T03:35:54.638Z,3.13
2023-05-19T03:38:43.404Z,3.30
2023-05-19T03:41:32.268Z,2.87
2023-05-19T03:44:21.483Z,3.00
2023-05-19T03:47:11.735Z,2.97
2023-05-19T03:50:24.181Z,3.23
2023-05-19T03:53:16.450Z,3.37
2023-05-19T03:56:07.535Z,3.70
2023-05-19T03:58:56.445Z,3.20
2023-05-19T04:01:46.419Z,2.97
2023-05-19T04:04:37.355Z,3.33
2023-05-19T04:07:26.448Z,3.33
2023-05-19T04:10:15.482Z,3.40
2023-05-19T04:13:04.365Z,3.40
2023-05-19T04:15:53.640Z,3.80
2023-05-19T04:18:45.538Z,3.07
2023-05-19T04:21:36.904Z,2.73
2023-05-19T04:24:26.165Z,3.53
2023-05-19T04:27:16.386Z,3.43
2023-05-19T04:30:05.855Z,3.20
2023-05-19T04:32:55.082Z,3.87
2023-05-19T04:35:44.417Z,3.60
2023-05-19T04:38:36.769Z,4.17
2023-05-19T04:41:25.561Z,3.27
2023-05-19T04:44:18.258Z,3.50
2023-05-19T04:47:10.284Z,3.57
2023-05-19T04:50:00.812Z,3.17
2023-05-19T04:52:49.900Z,3.10
2023-05-19T04:55:40.655Z,2.67
2023-05-19T04:58:30.152Z,3.57
2023-05-19T05:01:21.424Z,2.90
2023-05-19T05:04:10.673Z,3.40
2023-05-19T05:06:59.650Z,3.23
2023-05-19T05:09:49.130Z,3.33
2023-05-19T05:12:40.386Z,3.00
2023-05-19T05:15:30.092Z,3.03
2023-05-19T05:18:22.233Z,3.27
2023-05-19T05:21:12.906Z,4.37
2023-05-19T05:24:03.449Z,3.50
2023-05-19T05:26:55.411Z,3.53
2023-05-19T05:29:45.569Z,3.67
2023-05-19T05:32:35.010Z,3.60
2023-05-19T05:35:25.899Z,3.40
2023-05-19T05:38:15.504Z,3.23
2023-05-19T05:41:04.729Z,3.63
2023-05-19T05:43:54.908Z,3.60
2023-05-19T05:46:46.436Z,3.90
2023-05-19T05:49:38.082Z,3.40
2023-05-19T05:52:32.025Z,4.43
2023-05-19T05:55:23.189Z,3.07
2023-05-19T05:58:11.994Z,3.70
2023-05-19T06:01:02.894Z,3.20
2023-05-19T06:03:53.633Z,2.97
2023-05-19T06:06:45.354Z,3.80
2023-05-19T06:09:37.742Z,3.77
2023-05-19T06:12:28.960Z,2.90
2023-05-19T06:15:17.810Z,3.03
2023-05-19T06:18:13.191Z,4.00
2023-05-19T06:21:04.157Z,3.47
2023-05-19T06:23:53.315Z,3.13
2023-05-19T06:26:42.374Z,3.50
2023-05-19T06:29:31.388Z,4.60
2023-05-19T06:32:24.055Z,2.90
2023-05-19T06:35:13.199Z,3.27
2023-05-19T06:38:03.350Z,3.60
2023-05-19T06:40:52.130Z,3.40
2023-05-19T06:43:40.986Z,3.70
2023-05-19T06:46:30.701Z,3.37
2023-05-19T06:49:19.799Z,3.77
2023-05-19T06:52:10.216Z,3.27
2023-05-19T06:55:00.587Z,3.50
2023-05-19T06:57:53.634Z,3.87
2023-05-19T07:00:43.272Z,3.70
2023-05-19T07:03:34.351Z,3.63
2023-05-19T07:06:23.577Z,2.77
2023-05-19T07:09:14.163Z,3.30
2023-05-19T07:12:05.827Z,3.43
2023-05-19T07:14:56.833Z,3.70
2023-05-19T07:17:46.282Z,3.00
2023-05-19T07:20:35.511Z,3.20
2023-05-19T07:23:24.402Z,3.67
2023-05-19T07:26:13.242Z,4.10
2023-05-19T07:29:03.583Z,3.27
2023-05-19T07:31:54.259Z,3.10
2023-05-19T07:34:43.411Z,3.57
2023-05-19T07:37:32.332Z,4.03
2023-05-19T07:40:21.158Z,3.53
2023-05-19T07:43:11.356Z,3.27
2023-05-19T07:46:01.616Z,3.10
2023-05-19T07:48:51.747Z,3.07
2023-05-19T07:51:41.803Z,3.27
2023-05-19T07:54:30.660Z,2.73
2023-05-19T07:57:19.994Z,3.30
2023-05-19T08:00:12.058Z,2.97
2023-05-19T08:03:03.155Z,3.37
2023-05-19T08:05:54.079Z,3.47
2023-05-19T08:08:43.221Z,2.83
2023-05-19T08:11:32.077Z,3.13
2023-05-19T08:14:22.869Z,2.50
2023-05-19T08:17:11.712Z,2.50
2023-05-19T08:20:01.961Z,2.90
2023-05-19T08:22:51.145Z,2.80
2023-05-19T08:25:40.680Z,2.40
2023-05-19T08:28:29.574Z,2.90
2023-05-19T08:31:18.889Z,2.47
2023-05-19T08:34:09.021Z,2.60
2023-05-19T08:36:59.759Z,3.00
2023-05-19T08:39:48.530Z,2.57
2023-05-19T08:42:37.398Z,2.00
2023-05-19T08:45:26.342Z,2.17
2023-05-19T08:48:18.176Z,2.40
2023-05-19T08:51:18.320Z,2.40
2023-05-19T08:54:17.999Z,2.60
2023-05-19T08:57:09.974Z,2.20
2023-05-19T09:00:00.528Z,2.90
2023-05-19T09:03:00.777Z,2.47
2023-05-19T09:05:55.143Z,2.73
2023-05-19T09:08:45.281Z,2.27
2023-05-19T09:11:37.519Z,2.33
2023-05-19T09:14:26.644Z,2.70
2023-05-19T09:17:15.827Z,2.83
2023-05-19T09:20:10.796Z,2.33
2023-05-19T09:23:01.424Z,2.70
2023-05-19T09:25:52.734Z,2.33
2023-05-19T09:28:43.049Z,2.20
2023-05-19T09:31:34.317Z,2.30
2023-05-19T09:34:25.009Z,2.47
2023-05-19T09:37:14.654Z,2.30
2023-05-19T09:40:05.615Z,2.73
2023-05-19T09:42:55.602Z,2.00
2023-05-19T09:45:45.872Z,2.80
2023-05-19T09:48:35.557Z,2.37
2023-05-19T09:51:25.077Z,2.70
2023-05-19T09:54:17.251Z,2.40
2023-05-19T09:57:08.509Z,2.30
2023-05-19T09:59:59.662Z,2.47
2023-05-19T10:02:51.163Z,2.40
2023-05-19T10:05:41.676Z,2.63
2023-05-19T10:08:31.918Z,2.67
2023-05-19T10:11:23.390Z,3.17
2023-05-19T10:14:12.538Z,2.17
2023-05-19T10:17:01.411Z,3.60
2023-05-19T10:19:54.740Z,2.20
2023-05-19T10:22:48.556Z,2.23
2023-05-19T10:25:39.694Z,2.10
2023-05-19T10:28:38.045Z,2.50
2023-05-19T10:31:28.033Z,2.63
2023-05-19T10:35:01.526Z,2.23
2023-05-19T10:38:06.734Z,2.17
2023-05-19T10:41:08.647Z,1.90
2023-05-19T10:44:10.289Z,2.47
2023-05-19T10:46:59.301Z,2.23
2023-05-19T10:49:48.659Z,2.30
2023-05-19T10:52:39.769Z,2.50
2023-05-19T10:55:56.616Z,2.23
2023-05-19T10:58:52.122Z,2.20
2023-05-19T11:01:41.686Z,2.20
2023-05-19T11:04:49.573Z,3.07
2023-05-19T11:07:44.366Z,2.67
2023-05-19T11:10:33.809Z,2.23
2023-05-19T11:13:28.578Z,1.93
2023-05-19T11:16:22.434Z,2.20
2023-05-19T11:19:22.680Z,1.93
2023-05-19T11:22:13.566Z,2.03
2023-05-19T11:25:02.479Z,2.23
2023-05-19T11:27:52.838Z,2.30
2023-05-19T11:30:46.447Z,2.00
2023-05-19T11:33:35.803Z,1.90
2023-05-19T11:36:26.039Z,2.33
2023-05-19T11:39:16.106Z,2.07
2023-05-19T11:42:05.250Z,2.17
2023-05-19T11:44:57.431Z,1.73
2023-05-19T11:48:01.193Z,2.30
2023-05-19T11:50:52.477Z,2.27
2023-05-19T11:53:41.891Z,1.60
2023-05-19T11:56:36.785Z,1.73
2023-05-19T11:59:34.928Z,1.63
2023-05-19T12:02:27.474Z,1.90
2023-05-19T12:05:22.701Z,1.80
2023-05-19T12:08:12.212Z,1.93
2023-05-19T12:11:01.411Z,2.23
2023-05-19T12:13:54.665Z,2.50
2023-05-19T12:16:43.844Z,2.40
2023-05-19T12:19:33.147Z,1.80
2023-05-19T12:22:23.567Z,2.10
2023-05-19T12:25:12.673Z,1.60
2023-05-19T12:28:03.573Z,2.03
2023-05-19T12:30:54.513Z,2.10
2023-05-19T12:33:43.475Z,2.10
2023-05-19T12:36:33.782Z,1.67
2023-05-19T12:39:25.514Z,1.90
2023-05-19T12:42:14.738Z,2.30
2023-05-19T12:45:05.847Z,1.80
2023-05-19T12:47:56.176Z,1.73
2023-05-19T12:50:46.154Z,2.30
2023-05-19T12:53:35.262Z,2.00
2023-05-19T12:56:28.101Z,1.80
2023-05-19T12:59:37.217Z,2.10
2023-05-19T13:02:27.179Z,2.10
2023-05-19T13:05:16.052Z,2.20
2023-05-19T13:08:08.682Z,2.17
2023-05-19T13:10:57.728Z,1.90
2023-05-19T13:13:48.040Z,1.93
2023-05-19T13:16:36.965Z,2.00
2023-05-19T13:19:26.266Z,2.10
2023-05-19T13:22:15.236Z,2.40
2023-05-19T13:25:04.179Z,2.00
2023-05-19T13:27:53.313Z,2.10
2023-05-19T13:30:46.128Z,1.60
2023-05-19T13:33:34.942Z,2.00
2023-05-19T13:36:23.808Z,2.27
2023-05-19T13:39:12.733Z,1.80
2023-05-19T13:42:01.558Z,2.13
2023-05-19T13:44:50.465Z,1.50
2023-05-19T13:47:41.039Z,1.83
2023-05-19T13:50:29.935Z,1.90
2023-05-19T13:53:18.665Z,1.93
2023-05-19T13:56:08.854Z,2.20
2023-05-19T13:58:57.849Z,1.93
2023-05-19T14:01:46.784Z,2.27
2023-05-19T14:04:40.018Z,2.07
2023-05-19T14:07:30.896Z,2.50
2023-05-19T14:10:19.763Z,1.97
2023-05-19T14:16:02.824Z,1.90
2023-05-19T14:18:51.873Z,1.90
2023-05-19T14:21:42.219Z,2.03
2023-05-19T14:24:33.944Z,1.90
2023-05-19T14:27:22.811Z,2.20
2023-05-19T14:30:12.676Z,1.80
2023-05-19T14:33:01.665Z,1.60
2023-05-19T14:35:50.746Z,1.77
2023-05-19T14:38:41.155Z,2.20
2023-05-19T14:41:30.003Z,2.10
2023-05-19T14:44:18.900Z,2.37
2023-05-19T14:47:08.435Z,1.70
2023-05-19T14:49:57.639Z,2.00
2023-05-19T14:52:46.492Z,2.07
2023-05-19T14:55:36.752Z,1.87
2023-05-19T14:58:28.357Z,2.10
2023-05-19T15:01:18.160Z,2.53
2023-05-19T15:04:07.077Z,1.93
2023-05-19T15:07:09.783Z,2.33
2023-05-19T15:09:59.825Z,2.30
2023-05-19T15:12:50.152Z,1.80
2023-05-19T15:15:38.962Z,3.87
2023-05-19T15:18:27.825Z,2.17
2023-05-19T15:21:16.598Z,3.00
2023-05-19T15:24:05.834Z,2.30
2023-05-19T15:26:55.409Z,2.23
2023-05-19T15:29:45.611Z,2.10
2023-05-19T15:32:34.730Z,1.93
2023-05-19T15:35:23.771Z,2.20
2023-05-19T15:38:13.424Z,2.50
2023-05-19T15:41:09.373Z,2.10
2023-05-19T15:44:00.231Z,2.17
2023-05-19T15:46:50.853Z,2.67
2023-05-19T15:49:40.027Z,2.70
2023-05-19T15:52:29.324Z,3.00
2023-05-19T15:55:18.390Z,3.43
2023-05-19T15:58:08.616Z,2.30
2023-05-19T16:00:57.835Z,2.27
2023-05-19T16:03:48.308Z,2.37
2023-05-19T16:06:41.045Z,2.30
2023-05-19T16:09:29.925Z,2.20
2023-05-19T16:12:23.374Z,2.37
2023-05-19T16:15:12.456Z,2.47
2023-05-19T16:18:01.339Z,2.40
2023-05-19T16:20:52.176Z,2.83
2023-05-19T16:23:41.101Z,4.70
2023-05-19T16:26:30.182Z,2.60
2023-05-19T16:29:19.060Z,2.20
2023-05-19T16:32:12.382Z,2.23
2023-05-19T16:35:01.485Z,2.27
2023-05-19T16:37:51.718Z,2.60
2023-05-19T16:40:41.080Z,3.00
2023-05-19T16:43:29.834Z,2.40
2023-05-19T16:46:18.556Z,2.30
2023-05-19T16:49:07.543Z,2.20
2023-05-19T16:51:56.707Z,2.27
2023-05-19T16:54:46.962Z,2.30
2023-05-19T16:57:35.793Z,2.63
2023-05-19T17:00:24.725Z,2.80
2023-05-19T17:03:13.586Z,1.77
2023-05-19T17:06:02.574Z,2.60
2023-05-19T17:08:51.360Z,3.00
2023-05-19T17:11:42.815Z,2.70
2023-05-19T17:14:32.900Z,2.87
2023-05-19T17:17:21.730Z,3.33
2023-05-19T17:20:12.016Z,2.73
2023-05-19T17:23:00.801Z,2.40
2023-05-19T17:25:54.580Z,2.37
2023-05-19T17:28:47.192Z,2.63
2023-05-19T17:31:36.296Z,3.00
2023-05-19T17:34:25.062Z,3.77
2023-05-19T17:37:17.529Z,2.80
2023-05-19T17:40:08.271Z,3.20
2023-05-19T17:42:57.017Z,3.30
2023-05-19T17:45:48.299Z,2.53
2023-05-19T17:48:37.219Z,2.73
2023-05-19T17:51:27.829Z,2.93
2023-05-19T17:54:17.404Z,3.93
2023-05-19T17:57:12.939Z,3.20
2023-05-19T18:00:03.452Z,2.87
2023-05-19T18:02:56.962Z,2.90
2023-05-19T18:05:45.897Z,3.10
2023-05-19T18:08:35.862Z,3.10
2023-05-19T18:11:26.417Z,3.47
2023-05-19T18:14:15.187Z,2.90
2023-05-19T18:17:04.053Z,3.80
2023-05-19T18:19:54.564Z,3.60
2023-05-19T18:22:43.412Z,3.30
2023-05-19T18:25:32.400Z,3.43
2023-05-19T18:28:21.320Z,2.70
2023-05-19T18:31:16.922Z,3.63
2023-05-19T18:34:05.738Z,3.03
2023-05-19T18:36:56.885Z,3.40
2023-05-19T18:39:45.794Z,3.40
2023-05-19T18:42:34.637Z,3.30
2023-05-19T18:45:23.349Z,3.53
2023-05-19T18:48:12.175Z,3.17
2023-05-19T18:51:01.266Z,3.70
2023-05-19T18:53:51.963Z,3.87
2023-05-19T18:56:42.746Z,3.40
2023-05-19T18:59:31.727Z,3.10
2023-05-19T19:02:20.467Z,2.70
2023-05-19T19:05:10.139Z,3.03
2023-05-19T19:07:59.049Z,3.70
2023-05-19T19:10:50.428Z,3.40
2023-05-19T19:13:39.546Z,3.23
2023-05-19T19:16:28.427Z,3.03
2023-05-19T19:19:17.311Z,3.60
2023-05-19T19:22:06.347Z,2.93
2023-05-19T19:24:55.135Z,3.60
2023-05-19T19:27:45.268Z,3.07
2023-05-19T19:30:34.254Z,2.97
2023-05-19T19:33:23.192Z,3.83
2023-05-19T19:36:12.285Z,3.03
2023-05-19T19:39:01.108Z,2.87
2023-05-19T19:41:51.299Z,3.40
2023-05-19T19:44:41.444Z,3.60
2023-05-19T19:47:30.538Z,3.87
2023-05-19T19:50:19.716Z,5.70
2023-05-19T19:53:08.949Z,5.90
2023-05-19T19:55:59.545Z,3.77
2023-05-19T19:58:48.295Z,3.50
2023-05-19T20:01:38.450Z,3.70
2023-05-19T20:04:28.380Z,3.00
2023-05-19T20:07:19.497Z,3.40
2023-05-19T20:10:09.391Z,3.43
2023-05-19T20:12:58.835Z,3.90
2023-05-19T20:15:48.602Z,3.30
2023-05-19T20:18:39.569Z,3.57
2023-05-19T20:21:28.478Z,6.70
2023-05-19T20:24:17.224Z,3.63
2023-05-19T20:27:07.357Z,3.50
2023-05-19T20:29:56.671Z,3.57
2023-05-19T20:32:46.514Z,3.20
2023-05-19T20:35:36.744Z,3.27
2023-05-19T20:38:25.611Z,3.47
2023-05-19T20:41:14.556Z,3.60
2023-05-19T20:44:03.394Z,3.30
2023-05-19T20:46:52.189Z,3.77
2023-05-19T20:49:41.000Z,3.07
2023-05-19T20:52:32.216Z,3.93
2023-05-19T20:55:21.202Z,3.17
2023-05-19T20:58:09.959Z,3.37
2023-05-19T21:00:58.950Z,3.40
2023-05-19T21:03:47.819Z,3.70
2023-05-19T21:06:36.630Z,3.60
2023-05-19T21:09:27.019Z,3.93
2023-05-19T21:12:16.351Z,3.80
2023-05-19T21:15:06.086Z,3.83
2023-05-19T21:17:55.033Z,4.10
2023-05-19T21:20:43.908Z,3.90
2023-05-19T21:23:32.774Z,3.80
2023-05-19T21:26:22.958Z,3.90
2023-05-19T21:29:12.092Z,4.20
2023-05-19T21:32:01.148Z,4.30
2023-05-19T21:34:50.190Z,4.13
2023-05-19T21:37:38.995Z,4.40
2023-05-19T21:40:27.824Z,4.50
2023-05-19T21:43:18.279Z,3.97
2023-05-19T21:46:07.170Z,4.47
2023-05-19T21:48:56.172Z,4.33
2023-05-19T21:51:44.991Z,4.43
2023-05-19T21:54:33.762Z,4.10
2023-05-19T21:57:22.503Z,4.30
2023-05-19T22:00:14.885Z,4.20
2023-05-19T22:03:03.880Z,4.47
2023-05-19T22:05:53.839Z,3.27
2023-05-19T22:08:42.912Z,4.17
2023-05-19T22:11:31.731Z,4.33
2023-05-19T22:14:20.559Z,4.20
2023-05-19T22:17:10.788Z,4.27
2023-05-19T22:19:59.640Z,4.60
2023-05-19T22:22:48.449Z,4.67
2023-05-19T22:25:37.151Z,4.30
2023-05-19T22:28:27.130Z,4.13
2023-05-19T22:31:16.277Z,4.70
2023-05-19T22:34:06.512Z,4.37
2023-05-19T22:36:55.332Z,4.00
2023-05-19T22:39:44.117Z,3.80
2023-05-19T22:42:33.435Z,4.37
2023-05-19T22:45:22.627Z,4.50
2023-05-19T22:48:11.545Z,4.13
2023-05-19T22:51:01.748Z,4.40
2023-05-19T22:53:50.464Z,4.30
2023-05-19T22:56:39.230Z,4.30
2023-05-19T22:59:28.114Z,4.77
2023-05-19T23:02:16.872Z,3.77
2023-05-19T23:05:08.017Z,4.00
2023-05-19T23:07:58.118Z,4.30
2023-05-19T23:10:46.973Z,3.90
2023-05-19T23:13:35.704Z,4.67
2023-05-19T23:16:24.686Z,4.73
2023-05-19T23:19:13.493Z,4.23
2023-05-19T23:22:02.394Z,4.60
2023-05-19T23:24:52.509Z,3.50
2023-05-19T23:27:41.276Z,4.90
2023-05-19T23:30:30.427Z,4.30
2023-05-19T23:33:19.202Z,4.33
2023-05-19T23:36:10.025Z,4.47
2023-05-19T23:38:58.953Z,4.90
2023-05-19T23:41:49.632Z,4.57
2023-05-19T23:44:38.406Z,4.30
2023-05-19T23:47:27.657Z,4.47
2023-05-19T23:50:16.691Z,4.80
2023-05-19T23:53:05.593Z,4.77
2023-05-19T23:55:54.975Z,4.70
2023-05-19T23:58:46.459Z,5.40
